Latest Weather Observations for Point Perpendicular

IDN60801

Issued at 7:33 pm EST Wednesday 27 July 2016 (issued every 30 minutes, with the page automatically refreshed every 10 minutes)

About weather observations | Map of weather stations | Latest weather observations for NSW | Other Formats
Station Details ID: 068151 Name: POINT PERPENDICULAR AWS Lat: -35.09 Lon: 150.80 Height: 85.0 m
Data from the previous 72 hours. | See also: Recent months at Point Perpendicular
Date/Time
EST
Temp
°C
App
Temp
°C
Dew
Point
°C
Rel
Hum
%
Delta-T
°C
Wind Press
QNH
hPa
Press
MSL
hPa
Rain since
9am
mm
Dir  Spd
km/h
Gust
km/h
Spd
kts
Gust
kts
27/07:30pm 13.2 - 5.4 59 3.7 - - - - - 1016.6 1016.6 0.0
27/07:00pm 13.4 - 5.3 58 3.8 - - - - - 1016.0 1016.0 0.0
27/06:30pm 13.5 - 5.2 57 3.9 - - - - - 1015.4 1015.4 0.0
27/06:00pm 13.7 - 5.6 58 3.8 - - - - - 1014.8 1014.8 0.0
27/05:30pm 14.0 - 6.4 60 3.7 - - - - - 1014.3 1014.3 0.0
27/05:00pm 14.3 - 5.4 55 4.2 - - - - - 1013.3 1013.3 0.0
27/04:30pm 14.9 - 5.1 52 4.6 - - - - - 1013.2 1013.2 0.0
27/04:00pm 15.5 - 4.6 48 5.1 - - - - - 1012.8 1012.8 0.0
27/03:30pm 15.8 - 4.8 48 5.2 - - - - - 1012.4 1012.4 0.0
27/03:00pm 15.7 - 4.7 48 5.2 - - - - - 1012.0 1012.0 0.0
27/02:30pm 15.7 - 5.3 50 5.0 - - - - - 1011.7 1011.7 0.0
27/02:00pm 15.7 - 5.9 52 4.7 - - - - - 1011.6 1011.6 0.0
27/01:30pm 15.3 - 5.2 51 4.8 - - - - - 1011.2 1011.2 0.0
27/01:00pm 15.2 - 5.4 52 4.7 - - - - - 1011.3 1011.3 0.0
27/12:30pm 15.0 - 5.8 54 4.4 - - - - - 1010.6 1010.6 0.0
27/12:00pm 14.8 - 6.4 57 4.1 - - - - - 1010.7 1010.8 0.0
27/11:30am 14.5 - 5.8 56 4.2 - - - - - 1010.5 1010.5 0.0
27/11:00am 14.1 - 6.0 58 3.9 - - - - - 1010.4 1010.4 0.0
27/10:30am 13.9 - 6.3 60 3.7 - - - - - 1011.3 1011.3 0.0
27/10:00am 13.1 - 5.8 61 3.5 - - - - - 1011.2 1011.2 0.0
27/09:30am 13.2 - 6.8 65 3.1 - - - - - 1010.7 1010.8 0.0
27/09:00am 12.7 - 6.5 66 3.0 - - - - - 1009.2 1009.2 0.0
27/08:30am 12.7 - 7.4 70 2.6 - - - - - 1009.1 1009.1 0.0
27/08:00am 13.3 - 5.7 60 3.6 - - - - - 1009.5 1009.5 0.0
27/07:30am 12.6 - 5.5 62 3.3 - - - - - 1009.4 1009.4 0.0
27/07:00am 12.2 - 5.1 62 3.3 - - - - - 1009.4 1009.4 0.0
27/06:30am 11.4 - 4.8 64 3.0 - - - - - 1009.4 1009.4 0.0
27/06:00am 10.6 - 4.5 66 2.8 - - - - - 1009.2 1009.2 0.0
27/05:30am 10.9 - 4.6 65 2.9 - - - - - 1009.5 1009.5 0.0
27/05:00am 10.4 - 4.1 65 2.8 - - - - - 1009.0 1009.0 0.0
27/04:30am 10.3 - 4.0 65 2.8 - - - - - 1009.2 1009.2 0.0
27/04:00am 9.5 - 3.9 68 2.5 - - - - - 1009.7 1009.7 0.0
27/03:30am 9.8 - 3.8 66 2.6 - - - - - 1009.8 1009.8 0.0
27/03:00am 10.1 - 4.0 66 2.7 - - - - - 1010.2 1010.2 0.0
27/02:30am 8.4 - 3.8 73 2.0 - - - - - 1011.2 1011.2 0.0
27/02:00am 8.9 - 3.5 69 2.3 - - - - - 1011.3 1011.3 0.0
27/01:30am 10.0 - 3.7 65 2.8 - - - - - 1011.6 1011.6 0.0
27/01:00am 11.1 - 3.6 60 3.3 - - - - - 1012.0 1012.0 0.0
27/12:30am 11.0 - 3.5 60 3.3 - - - - - 1012.0 1012.0 0.0
27/12:00am 11.2 - 3.7 60 3.3 - - - - - 1012.3 1012.3 0.0
 
Date/Time
EST
Temp
°C
App
Temp
°C
Dew
Point
°C
Rel
Hum
%
Delta-T
°C
Wind Press
QNH
hPa
Press
MSL
hPa
Rain since
9am
mm
Dir  Spd
km/h
Gust
km/h
Spd
kts
Gust
kts
26/11:30pm 11.3 - 3.6 59 3.4 - - - - - 1012.5 1012.5 0.0
26/11:00pm 10.4 - 3.0 60 3.2 - - - - - 1013.1 1013.1 0.0
26/10:30pm 10.9 - 3.0 58 3.4 - - - - - 1013.0 1013.0 0.0
26/10:00pm 11.3 - 2.9 56 3.7 - - - - - 1013.6 1013.6 0.0
26/09:30pm 12.1 - 2.0 50 4.4 - - - - - 1013.6 1013.6 0.0
26/09:00pm 12.1 - 1.7 49 4.5 - - - - - 1013.5 1013.5 0.0
26/08:30pm 12.2 - 2.4 51 4.3 - - - - - 1014.0 1014.0 0.0
26/08:00pm 11.9 - 2.6 53 4.1 - - - - - 1014.1 1014.1 0.0
26/07:30pm 12.2 - 1.8 49 4.5 - - - - - 1013.8 1013.8 0.0
26/07:00pm 11.8 - 2.8 54 3.9 - - - - - 1013.9 1013.9 0.0
26/06:30pm 12.5 - 2.4 50 4.4 - - - - - 1013.9 1013.9 0.0
26/06:00pm 12.7 - 2.6 50 4.4 - - - - - 1013.7 1013.7 0.0
26/05:30pm 12.8 - 2.6 50 4.5 - - - - - 1013.3 1013.3 0.0
26/05:00pm 13.1 - 2.6 49 4.6 - - - - - 1012.8 1012.8 0.0
26/04:30pm 13.5 - 1.8 45 5.1 - - - - - 1012.6 1012.6 0.0
26/04:00pm 14.0 - 1.6 43 5.4 - - - - - 1012.6 1012.6 0.0
26/03:30pm 14.4 - 1.0 40 5.8 - - - - - 1012.6 1012.6 0.0
26/03:00pm 14.7 - 1.9 42 5.6 - - - - - 1012.6 1012.6 0.0
26/02:30pm 14.8 - 1.0 39 6.0 - - - - - 1012.4 1012.4 0.0
26/02:00pm 14.5 - -0.4 36 6.2 - - - - - 1012.3 1012.3 0.0
26/01:30pm 14.5 - 1.1 40 5.8 - - - - - 1012.5 1012.5 0.0
26/01:00pm 14.3 - 0.6 39 5.8 - - - - - 1012.8 1012.8 0.0
26/12:30pm 14.2 - 0.8 40 5.7 - - - - - 1013.2 1013.2 0.0
26/12:00pm 14.4 - 2.0 43 5.5 - - - - - 1013.6 1013.6 0.0
26/11:30am 13.9 - 3.1 48 4.8 - - - - - 1014.1 1014.1 0.0
26/11:00am 13.5 - 2.1 46 5.0 - - - - - 1014.2 1014.2 0.0
26/10:30am 13.2 - 2.7 49 4.6 - - - - - 1014.4 1014.4 0.0
26/10:00am 12.8 - 2.4 49 4.6 - - - - - 1014.5 1014.5 0.0
26/09:30am 12.5 - 2.4 50 4.4 - - - - - 1014.1 1014.1 0.0
26/09:00am 12.6 - 2.7 51 4.4 - - - - - 1013.8 1013.8 0.0
26/08:30am 12.5 - 2.4 50 4.4 - - - - - 1013.6 1013.6 0.0
26/08:00am 12.7 - 3.1 52 4.3 - - - - - 1012.8 1012.8 0.0
26/07:30am 12.7 - 4.4 57 3.8 - - - - - 1012.7 1012.7 0.0
26/07:00am 12.3 - 4.8 60 3.5 - - - - - 1011.7 1011.7 0.0
26/06:30am 12.4 - 4.4 58 3.6 - - - - - 1011.5 1011.5 0.0
26/06:00am 12.5 - 5.2 61 3.4 - - - - - 1011.3 1011.3 0.0
26/05:30am 12.8 - 5.5 61 3.4 - - - - - 1011.0 1011.1 0.0
26/05:00am 12.8 - 4.0 55 4.0 - - - - - 1010.6 1010.6 0.0
26/04:30am 13.1 - 5.3 59 3.6 - - - - - 1010.0 1010.0 0.0
26/04:00am 12.7 - 4.2 56 3.9 - - - - - 1009.9 1009.9 0.0
26/03:30am 12.7 - 4.4 57 3.8 - - - - - 1009.6 1009.6 0.0
26/03:00am 12.9 - 3.8 54 4.1 - - - - - 1009.7 1009.7 0.0
26/02:30am 12.8 - 3.7 54 4.1 - - - - - 1009.7 1009.7 0.0
26/02:00am 12.5 - 4.2 57 3.8 - - - - - 1009.7 1009.7 0.0
26/01:30am 12.5 - 3.7 55 4.0 - - - - - 1009.7 1009.7 0.0
26/01:00am 12.5 - 4.0 56 3.9 - - - - - 1009.7 1009.7 0.0
26/12:30am 12.5 - 2.9 52 4.2 - - - - - 1009.4 1009.4 0.0
26/12:00am 12.3 - 3.3 54 4.0 - - - - - 1009.9 1009.9 0.0
 
Date/Time
EST
Temp
°C
App
Temp
°C
Dew
Point
°C
Rel
Hum
%
Delta-T
°C
Wind Press
QNH
hPa
Press
MSL
hPa
Rain since
9am
mm
Dir  Spd
km/h
Gust
km/h
Spd
kts
Gust
kts
25/11:30pm 12.1 - 3.1 54 4.0 - - - - - 1010.4 1010.4 0.0
25/11:00pm 12.1 - 3.6 56 3.8 - - - - - 1010.1 1010.1 0.0
25/10:30pm 12.1 - 3.6 56 3.8 - - - - - 1010.5 1010.5 0.0
25/10:00pm 11.8 - 3.3 56 3.8 - - - - - 1010.7 1010.8 0.0
25/09:30pm 11.8 - 4.1 59 3.5 - - - - - 1011.0 1011.1 0.0
25/09:00pm 12.0 - 4.5 60 3.4 - - - - - 1011.3 1011.3 0.0
25/08:30pm 12.0 - 4.7 61 3.3 - - - - - 1011.4 1011.4 0.0
25/08:00pm 11.6 - 5.0 64 3.0 - - - - - 1011.6 1011.6 0.0
25/07:30pm 11.9 - 5.1 63 3.1 - - - - - 1011.7 1011.7 0.0
25/07:00pm 12.2 - 5.1 62 3.3 - - - - - 1011.0 1011.1 0.0
25/06:30pm 12.4 - 5.3 62 3.3 - - - - - 1010.0 1010.0 0.0
25/06:00pm 12.4 - 4.4 58 3.7 - - - - - 1010.5 1010.5 0.0
25/05:30pm 12.6 - 4.1 56 3.9 - - - - - 1010.2 1010.2 0.0
25/05:00pm 13.1 - 3.7 53 4.3 - - - - - 1009.8 1009.8 0.0
25/04:30pm 13.5 - 4.1 53 4.3 - - - - - 1009.8 1009.8 0.0
25/04:00pm 14.1 - 4.9 54 4.3 - - - - - 1009.7 1009.7 0.0
25/03:30pm 14.3 - 4.3 51 4.6 - - - - - 1009.7 1009.7 0.0
25/03:00pm 14.3 - 4.0 50 4.7 - - - - - 1009.6 1009.6 0.0
25/02:30pm 14.4 - 3.5 48 5.0 - - - - - 1009.3 1009.3 0.0
25/02:00pm 14.4 - 4.4 51 4.6 - - - - - 1008.9 1008.9 0.0
25/01:30pm 14.3 - 4.0 50 4.7 - - - - - 1009.4 1009.4 0.0
25/01:00pm 14.2 - 3.9 50 4.7 - - - - - 1009.6 1009.6 0.0
25/12:30pm 14.1 - 4.7 53 4.4 - - - - - 1009.9 1009.9 0.0
25/12:00pm 13.6 - 3.9 52 4.4 - - - - - 1010.2 1010.2 0.0
25/11:30am 13.5 - 4.4 54 4.2 - - - - - 1010.3 1010.3 0.0
25/11:00am 13.1 - 4.3 55 4.0 - - - - - 1010.6 1010.6 0.0
25/10:30am 12.7 - 3.6 54 4.1 - - - - - 1010.1 1010.1 0.0
25/10:00am 12.3 - 3.8 56 3.8 - - - - - 1010.4 1010.4 0.0
25/09:30am 11.9 - 3.9 58 3.6 - - - - - 1010.7 1010.8 0.0
25/09:00am 11.6 - 3.9 59 3.5 - - - - - 1010.3 1010.3 0.0
25/08:30am 11.1 - 4.1 62 3.1 - - - - - 1010.4 1010.4 0.0
25/08:00am 10.9 - 4.1 63 3.0 - - - - - 1010.0 1010.0 0.0
25/07:30am 10.7 - 4.6 66 2.8 - - - - - 1009.9 1009.9 0.0
25/07:00am 10.5 - 4.0 64 2.9 - - - - - 1010.0 1010.0 0.0
25/06:30am 10.3 - 3.1 61 3.1 - - - - - 1008.9 1008.9 0.0
25/06:00am 10.3 - 3.1 61 3.1 - - - - - 1009.0 1009.0 0.0
25/05:30am 10.1 - 2.9 61 3.1 - - - - - 1008.4 1008.4 0.0
25/05:00am 10.2 - 2.6 59 3.3 - - - - - 1008.1 1008.1 0.0
25/04:30am 10.4 - 3.2 61 3.1 - - - - - 1008.0 1008.0 0.0
25/04:00am 10.7 - 4.2 64 2.9 - - - - - 1008.2 1008.2 0.0
25/03:30am 11.1 - 4.6 64 2.9 - - - - - 1008.3 1008.3 0.0
25/03:00am 10.4 - 5.2 70 2.4 - - - - - 1008.4 1008.4 0.0
25/02:30am 9.6 - 5.6 76 1.8 - - - - - 1008.4 1008.4 0.0
25/02:00am 9.1 - 5.7 79 1.6 - - - - - 1008.4 1008.4 0.0
25/01:30am 8.8 - 4.8 76 1.8 - - - - - 1008.7 1008.7 0.0
25/01:00am 8.6 - 4.2 74 1.9 - - - - - 1008.9 1008.9 0.0
25/12:30am 8.7 - 3.3 69 2.3 - - - - - 1009.1 1009.1 0.0
25/12:00am 9.4 - 3.2 65 2.7 - - - - - 1009.7 1009.7 0.0
 
Date/Time
EST
Temp
°C
App
Temp
°C
Dew
Point
°C
Rel
Hum
%
Delta-T
°C
Wind Press
QNH
hPa
Press
MSL
hPa
Rain since
9am
mm
Dir  Spd
km/h
Gust
km/h
Spd
kts
Gust
kts
24/11:30pm 9.0 - 3.0 66 2.6 - - - - - 1010.4 1010.4 0.0
24/11:00pm 8.6 - 2.2 64 2.7 - - - - - 1010.8 1010.9 0.0
24/10:30pm 10.2 - 2.6 59 3.3 - - - - - 1011.3 1011.3 0.0
24/10:00pm 9.9 - 2.0 58 3.3 - - - - - 1011.3 1011.3 0.0
24/09:30pm 9.4 - 1.8 59 3.2 - - - - - 1011.4 1011.4 0.0
24/09:00pm 9.3 - 1.0 56 3.4 - - - - - 1011.6 1011.6 0.0
24/08:30pm 8.1 - 1.3 62 2.8 - - - - - 1011.8 1011.8 0.0
24/08:00pm 8.6 - 1.3 60 3.0 - - - - - 1011.9 1011.9 0.0

Other Formats:

Comma delimited format used in spreadsheet applications
http://www.bom.gov.au/fwo/IDN60801/IDN60801.95940.axf

JavaScript Object Notation format (JSON) in row-major order
http://www.bom.gov.au/fwo/IDN60801/IDN60801.95940.json